createdAt,value
2017-11-29T00:01:54.664Z,11.57
2017-11-29T00:04:22.146Z,11.50
2017-11-29T00:06:52.949Z,12.23
2017-11-29T00:09:20.405Z,12.83
2017-11-29T00:11:47.900Z,11.20
2017-11-29T00:14:15.706Z,14.00
2017-11-29T00:16:43.423Z,12.43
2017-11-29T00:19:10.934Z,12.70
2017-11-29T00:21:38.445Z,13.27
2017-11-29T00:24:05.905Z,12.63
2017-11-29T00:26:34.363Z,13.00
2017-11-29T00:29:01.825Z,13.70
2017-11-29T00:31:29.333Z,13.50
2017-11-29T00:33:56.785Z,12.77
2017-11-29T00:36:24.294Z,12.33
2017-11-29T00:38:51.799Z,12.20
2017-11-29T00:41:19.277Z,11.70
2017-11-29T00:43:46.744Z,12.77
2017-11-29T00:46:14.967Z,13.30
2017-11-29T00:48:42.480Z,12.97
2017-11-29T00:51:09.974Z,13.47
2017-11-29T00:53:37.471Z,12.53
2017-11-29T00:56:04.931Z,12.57
2017-11-29T00:58:33.462Z,13.83
2017-11-29T01:01:00.931Z,12.30
2017-11-29T01:03:28.381Z,13.30
2017-11-29T01:05:55.856Z,12.90
2017-11-29T01:08:23.316Z,12.53
2017-11-29T01:10:50.894Z,13.40
2017-11-29T01:13:18.394Z,13.23
2017-11-29T01:15:45.877Z,13.53
2017-11-29T01:18:13.371Z,13.77
2017-11-29T01:20:40.830Z,12.93
2017-11-29T01:23:08.297Z,12.93
2017-11-29T01:25:35.770Z,12.63
2017-11-29T01:28:03.264Z,13.43
2017-11-29T01:30:30.773Z,13.40
2017-11-29T01:32:58.223Z,13.10
2017-11-29T01:35:25.691Z,12.90
2017-11-29T01:37:53.176Z,13.30
2017-11-29T01:40:20.632Z,14.10
2017-11-29T01:42:48.206Z,13.10
2017-11-29T01:45:15.769Z,12.63
2017-11-29T01:47:43.256Z,14.10
2017-11-29T01:50:10.809Z,13.57
2017-11-29T01:52:38.604Z,13.60
2017-11-29T01:55:06.080Z,13.57
2017-11-29T01:57:33.596Z,14.37
2017-11-29T02:00:01.127Z,14.27
2017-11-29T02:02:28.608Z,13.80
2017-11-29T02:04:56.116Z,11.07
2017-11-29T02:07:23.581Z,13.63
2017-11-29T02:09:51.036Z,13.53
2017-11-29T02:12:18.557Z,13.37
2017-11-29T02:14:46.028Z,13.23
2017-11-29T02:17:13.515Z,12.30
2017-11-29T02:19:40.989Z,14.30
2017-11-29T02:22:08.445Z,14.30
2017-11-29T02:24:35.973Z,14.77
2017-11-29T02:27:03.443Z,14.33
2017-11-29T02:29:30.904Z,13.50
2017-11-29T02:31:58.385Z,13.10
2017-11-29T02:34:25.917Z,13.77
2017-11-29T02:36:53.420Z,13.37
2017-11-29T02:39:20.893Z,14.50
2017-11-29T02:41:59.955Z,14.13
2017-11-29T02:44:27.435Z,13.87
2017-11-29T02:46:54.888Z,14.33
2017-11-29T02:49:22.371Z,14.00
2017-11-29T02:51:49.824Z,15.00
2017-11-29T02:54:17.285Z,15.47
2017-11-29T02:56:44.770Z,15.03
2017-11-29T02:59:12.251Z,16.10
2017-11-29T03:01:39.738Z,14.30
2017-11-29T03:04:07.235Z,15.93
2017-11-29T03:06:35.766Z,14.03
2017-11-29T03:09:03.268Z,13.03
2017-11-29T03:11:30.724Z,14.70
2017-11-29T03:13:58.184Z,16.00
2017-11-29T03:16:25.648Z,13.83
2017-11-29T03:18:53.761Z,14.60
2017-11-29T03:21:21.254Z,15.03
2017-11-29T03:23:48.730Z,16.07
2017-11-29T03:26:16.969Z,14.70
2017-11-29T03:28:44.441Z,16.87
2017-11-29T03:31:11.918Z,14.50
2017-11-29T03:33:39.408Z,14.77
2017-11-29T03:36:07.513Z,15.80
2017-11-29T03:38:36.310Z,13.93
2017-11-29T03:41:03.773Z,14.00
2017-11-29T03:43:31.233Z,16.07
2017-11-29T03:45:58.707Z,16.20
2017-11-29T03:48:26.294Z,15.80
2017-11-29T03:50:53.764Z,15.73
2017-11-29T03:53:21.241Z,15.40
2017-11-29T03:55:48.692Z,16.00
2017-11-29T03:58:16.488Z,15.93
2017-11-29T04:00:43.972Z,16.30
2017-11-29T04:03:11.441Z,16.90
2017-11-29T04:05:39.408Z,16.97
2017-11-29T04:08:06.894Z,15.87
2017-11-29T04:10:35.041Z,15.30
2017-11-29T04:13:02.558Z,15.30
2017-11-29T04:15:30.034Z,16.23
2017-11-29T04:17:57.512Z,16.70
2017-11-29T04:20:25.025Z,15.63
2017-11-29T04:22:52.488Z,16.73
2017-11-29T04:25:19.990Z,14.47
2017-11-29T04:27:47.463Z,15.37
2017-11-29T04:30:14.931Z,17.13
2017-11-29T04:32:43.019Z,16.07
2017-11-29T04:35:10.513Z,16.83
2017-11-29T04:37:37.973Z,16.37
2017-11-29T04:40:05.444Z,16.30
2017-11-29T04:42:33.363Z,16.30
2017-11-29T04:45:00.846Z,17.87
2017-11-29T04:47:28.547Z,15.93
2017-11-29T04:49:56.010Z,16.90
2017-11-29T04:52:23.489Z,17.53
2017-11-29T04:54:51.108Z,16.37
2017-11-29T04:57:18.613Z,17.90
2017-11-29T04:59:46.145Z,18.47
2017-11-29T05:02:13.639Z,17.83
2017-11-29T05:04:41.104Z,17.87
2017-11-29T05:07:08.625Z,19.00
2017-11-29T05:09:36.101Z,17.90
2017-11-29T05:12:03.612Z,18.43
2017-11-29T05:14:31.100Z,18.70
2017-11-29T05:16:58.580Z,18.37
2017-11-29T05:19:26.077Z,19.20
2017-11-29T05:21:53.542Z,19.20
2017-11-29T05:24:21.025Z,18.33
2017-11-29T05:26:48.511Z,19.37
2017-11-29T05:29:16.030Z,19.63
2017-11-29T05:31:43.542Z,20.03
2017-11-29T05:34:11.025Z,21.10
2017-11-29T05:36:38.546Z,21.23
2017-11-29T05:39:06.027Z,22.40
2017-11-29T05:41:33.502Z,21.70
2017-11-29T05:44:00.999Z,21.87
2017-11-29T05:46:28.531Z,20.67
2017-11-29T05:48:56.021Z,21.60
2017-11-29T05:51:23.571Z,22.00
2017-11-29T05:53:51.084Z,21.97
2017-11-29T05:56:18.680Z,21.40
2017-11-29T05:58:46.128Z,21.50
2017-11-29T06:01:13.608Z,21.13
2017-11-29T06:03:41.264Z,28.30
2017-11-29T06:06:08.731Z,23.93
2017-11-29T06:08:37.890Z,20.50
2017-11-29T06:11:05.391Z,21.93
2017-11-29T06:13:32.851Z,21.73
2017-11-29T06:16:00.304Z,21.70
2017-11-29T06:18:28.562Z,22.10
2017-11-29T06:20:56.068Z,22.87
2017-11-29T06:23:23.576Z,23.60
2017-11-29T06:25:51.045Z,24.33
2017-11-29T06:28:18.538Z,23.87
2017-11-29T06:30:48.367Z,22.80
2017-11-29T06:33:16.785Z,22.63
2017-11-29T06:35:44.241Z,24.40
2017-11-29T06:38:11.821Z,24.10
2017-11-29T06:40:39.309Z,24.23
2017-11-29T06:43:06.772Z,24.20
2017-11-29T06:45:34.265Z,24.70
2017-11-29T06:48:01.805Z,23.37
2017-11-29T06:50:29.274Z,24.27
2017-11-29T06:52:56.795Z,26.37
2017-11-29T06:55:24.266Z,23.97
2017-11-29T06:57:51.771Z,26.43
2017-11-29T07:00:19.289Z,25.33
2017-11-29T07:02:46.797Z,24.90
2017-11-29T07:05:14.426Z,25.10
2017-11-29T07:07:41.966Z,25.73
2017-11-29T07:10:09.445Z,23.83
2017-11-29T07:12:36.967Z,25.40
2017-11-29T07:15:04.445Z,23.87
2017-11-29T07:17:32.003Z,23.20
2017-11-29T07:19:59.465Z,24.63
2017-11-29T07:22:26.948Z,24.90
2017-11-29T07:24:54.405Z,25.90
2017-11-29T07:27:21.863Z,23.77
2017-11-29T07:29:49.372Z,25.93
2017-11-29T07:32:17.561Z,25.33
2017-11-29T07:34:45.036Z,25.93
2017-11-29T07:37:12.515Z,27.50
2017-11-29T07:39:39.966Z,25.53
2017-11-29T07:42:07.440Z,27.07
2017-11-29T07:44:35.049Z,25.10
2017-11-29T07:47:02.541Z,25.40
2017-11-29T07:49:30.196Z,26.37
2017-11-29T07:51:57.936Z,25.10
2017-11-29T07:54:25.549Z,24.97
2017-11-29T07:56:53.010Z,25.53
2017-11-29T07:59:20.488Z,24.20
2017-11-29T08:01:47.973Z,24.27
2017-11-29T08:04:15.766Z,26.17
2017-11-29T08:06:43.491Z,25.90
2017-11-29T08:09:10.960Z,26.37
2017-11-29T08:11:38.694Z,26.17
2017-11-29T08:14:06.249Z,26.00
2017-11-29T08:16:33.914Z,24.90
2017-11-29T08:19:01.375Z,24.70
2017-11-29T08:21:28.846Z,27.20
2017-11-29T08:23:56.309Z,25.50
2017-11-29T08:26:23.758Z,24.47
2017-11-29T08:28:51.271Z,23.97
2017-11-29T08:31:18.745Z,26.47
2017-11-29T08:33:46.222Z,24.97
2017-11-29T08:36:13.711Z,26.10
2017-11-29T08:38:41.342Z,25.33
2017-11-29T08:41:08.826Z,25.63
2017-11-29T08:43:36.308Z,23.77
2017-11-29T08:46:03.814Z,26.43
2017-11-29T08:48:31.640Z,22.60
2017-11-29T08:50:59.115Z,24.10
2017-11-29T08:53:26.625Z,24.50
2017-11-29T08:55:54.109Z,23.97
2017-11-29T08:58:21.591Z,24.10
2017-11-29T09:00:49.610Z,24.10
2017-11-29T09:03:17.989Z,27.80
2017-11-29T09:05:45.477Z,25.47
2017-11-29T09:08:12.938Z,26.47
2017-11-29T09:10:40.445Z,25.67
2017-11-29T09:13:08.140Z,27.30
2017-11-29T09:15:35.605Z,28.87
2017-11-29T09:18:03.144Z,28.63
2017-11-29T09:20:30.605Z,29.67
2017-11-29T09:22:58.897Z,30.20
2017-11-29T09:25:26.411Z,29.20
2017-11-29T09:27:53.883Z,28.17
2017-11-29T09:30:21.376Z,28.33
2017-11-29T09:32:48.843Z,30.33
2017-11-29T09:35:16.291Z,28.60
2017-11-29T09:37:43.812Z,30.47
2017-11-29T09:40:11.417Z,31.00
2017-11-29T09:42:38.889Z,31.20
2017-11-29T09:45:06.405Z,32.63
2017-11-29T09:47:33.937Z,29.23
2017-11-29T09:50:01.454Z,34.60
2017-11-29T09:52:28.957Z,30.70
2017-11-29T09:54:56.481Z,29.20
2017-11-29T09:57:23.997Z,31.10
2017-11-29T09:59:51.547Z,29.90
2017-11-29T10:02:19.214Z,29.93
2017-11-29T10:04:46.700Z,31.40
2017-11-29T10:07:14.270Z,31.40
2017-11-29T10:09:41.802Z,29.33
2017-11-29T10:12:09.313Z,32.03
2017-11-29T10:14:36.902Z,32.40
2017-11-29T10:17:04.381Z,33.23
2017-11-29T10:19:31.872Z,33.90
2017-11-29T10:21:59.332Z,32.93
2017-11-29T10:24:26.914Z,31.80
2017-11-29T10:26:54.410Z,29.67
2017-11-29T10:29:21.940Z,30.00
2017-11-29T10:31:49.404Z,31.53
2017-11-29T10:34:19.092Z,29.13
2017-11-29T10:36:46.914Z,28.50
2017-11-29T10:39:14.382Z,30.60
2017-11-29T10:41:41.895Z,30.10
2017-11-29T10:44:09.380Z,26.57
2017-11-29T10:46:37.592Z,28.60
2017-11-29T10:49:05.104Z,28.13
2017-11-29T10:51:32.571Z,27.60
2017-11-29T10:54:00.034Z,28.20
2017-11-29T10:56:27.596Z,27.70
2017-11-29T10:58:55.120Z,28.97
2017-11-29T11:01:22.580Z,27.80
2017-11-29T11:03:50.054Z,27.33
2017-11-29T11:06:17.631Z,28.80
2017-11-29T11:08:45.145Z,26.33
2017-11-29T11:11:12.789Z,27.87
2017-11-29T11:13:40.306Z,28.90
2017-11-29T11:16:07.824Z,28.20
2017-11-29T11:18:36.125Z,25.80
2017-11-29T11:21:03.651Z,29.93
2017-11-29T11:23:31.814Z,28.70
2017-11-29T11:25:59.305Z,27.40
2017-11-29T11:28:26.857Z,27.87
2017-11-29T11:30:54.878Z,27.87
2017-11-29T11:33:22.421Z,28.20
2017-11-29T11:35:49.885Z,27.60
2017-11-29T11:38:17.556Z,27.73
2017-11-29T11:40:45.083Z,25.97
2017-11-29T11:43:12.545Z,23.93
2017-11-29T11:45:40.028Z,27.40
2017-11-29T11:48:07.485Z,25.27
2017-11-29T11:50:35.699Z,24.50
2017-11-29T11:53:03.187Z,21.97
2017-11-29T11:55:30.730Z,24.53
2017-11-29T11:57:58.213Z,23.73
2017-11-29T12:00:25.865Z,24.07
2017-11-29T12:02:53.352Z,23.70
2017-11-29T12:05:20.830Z,22.23
2017-11-29T12:07:48.307Z,24.37
2017-11-29T12:10:17.831Z,23.70
2017-11-29T12:12:45.945Z,24.07
2017-11-29T12:15:13.438Z,23.97
2017-11-29T12:17:40.940Z,25.77
2017-11-29T12:20:08.432Z,24.67
2017-11-29T12:22:37.024Z,23.77
2017-11-29T12:25:04.490Z,23.17
2017-11-29T12:27:31.959Z,23.23
2017-11-29T12:29:59.429Z,22.43
2017-11-29T12:32:26.983Z,24.57
2017-11-29T12:34:54.552Z,24.20
2017-11-29T12:37:22.016Z,26.97
2017-11-29T12:39:49.560Z,24.93
2017-11-29T12:42:17.093Z,26.00
2017-11-29T12:44:44.605Z,23.63
2017-11-29T12:47:12.122Z,23.77
2017-11-29T12:49:51.248Z,24.60
2017-11-29T12:52:18.703Z,26.07
2017-11-29T12:54:46.160Z,26.97
2017-11-29T12:57:13.640Z,27.83
2017-11-29T12:59:41.106Z,27.50
2017-11-29T13:02:08.582Z,26.60
2017-11-29T13:04:36.966Z,27.60
2017-11-29T13:07:04.421Z,27.53
2017-11-29T13:09:31.939Z,26.80
2017-11-29T13:11:59.427Z,27.67
2017-11-29T13:14:26.881Z,29.80
2017-11-29T13:16:54.370Z,28.30
2017-11-29T13:19:21.902Z,30.73
2017-11-29T13:21:49.360Z,33.17
2017-11-29T13:24:16.876Z,31.13
2017-11-29T13:26:44.341Z,34.23
2017-11-29T13:29:11.797Z,32.13
2017-11-29T13:31:39.309Z,33.77
2017-11-29T13:34:06.796Z,30.63
2017-11-29T13:36:34.279Z,33.17
2017-11-29T13:39:01.836Z,30.67
2017-11-29T13:41:29.310Z,31.63
2017-11-29T13:43:56.774Z,30.13
2017-11-29T13:46:24.253Z,30.13
2017-11-29T13:48:54.057Z,30.67
2017-11-29T13:51:21.617Z,33.40
2017-11-29T13:53:49.094Z,31.20
2017-11-29T13:56:16.741Z,30.00
2017-11-29T13:58:44.209Z,31.07
2017-11-29T14:01:11.701Z,31.77
2017-11-29T14:03:39.184Z,29.80
2017-11-29T14:06:06.654Z,31.03
2017-11-29T14:08:34.364Z,30.20
2017-11-29T14:11:01.848Z,30.67
2017-11-29T14:13:29.486Z,30.30
2017-11-29T14:15:56.956Z,29.90
2017-11-29T14:18:24.581Z,29.03
2017-11-29T14:20:52.079Z,29.97
2017-11-29T14:23:19.534Z,29.23
2017-11-29T14:25:47.018Z,27.70
2017-11-29T14:28:16.605Z,30.30
2017-11-29T14:30:44.257Z,31.10
2017-11-29T14:33:11.792Z,28.40
2017-11-29T14:35:39.249Z,31.20
2017-11-29T14:38:06.748Z,31.10
2017-11-29T14:40:37.237Z,26.43
2017-11-29T14:43:04.976Z,26.60
2017-11-29T14:45:32.536Z,27.67
2017-11-29T14:48:00.020Z,23.83
2017-11-29T14:50:27.469Z,25.63
2017-11-29T14:52:54.992Z,24.10
2017-11-29T14:55:22.465Z,25.60
2017-11-29T14:57:49.962Z,24.27
2017-11-29T15:00:18.785Z,24.93
2017-11-29T15:02:46.246Z,23.43
2017-11-29T15:05:13.783Z,22.93
2017-11-29T15:07:41.237Z,23.57
2017-11-29T15:10:08.695Z,24.93
2017-11-29T15:12:36.178Z,25.23
2017-11-29T15:15:03.925Z,23.87
2017-11-29T15:17:31.616Z,24.60
2017-11-29T15:19:59.060Z,25.30
2017-11-29T15:22:27.457Z,25.33
2017-11-29T15:24:54.943Z,25.70
2017-11-29T15:27:22.824Z,25.83
2017-11-29T15:29:50.304Z,28.47
2017-11-29T15:32:17.924Z,26.83
2017-11-29T15:34:45.446Z,28.80
2017-11-29T15:37:12.873Z,30.80
2017-11-29T15:39:40.372Z,29.10
2017-11-29T15:42:07.829Z,31.47
2017-11-29T15:44:39.563Z,31.03
2017-11-29T15:47:07.136Z,31.20
2017-11-29T15:49:34.632Z,31.17
2017-11-29T15:52:02.169Z,32.70
2017-11-29T15:54:30.556Z,32.13
2017-11-29T15:56:58.092Z,30.97
2017-11-29T15:59:25.577Z,33.60
2017-11-29T16:01:53.021Z,35.40
2017-11-29T16:04:21.138Z,36.77
2017-11-29T16:06:50.457Z,34.67
2017-11-29T16:09:18.748Z,34.50
2017-11-29T16:11:46.209Z,36.33
2017-11-29T16:14:13.710Z,37.17
2017-11-29T16:16:41.237Z,36.30
2017-11-29T16:19:08.776Z,38.80
2017-11-29T16:21:36.447Z,37.60
2017-11-29T16:24:04.797Z,37.50
2017-11-29T16:26:32.346Z,40.80
2017-11-29T16:28:59.938Z,37.93
2017-11-29T16:31:27.465Z,37.90
2017-11-29T16:33:54.992Z,39.23
2017-11-29T16:36:22.534Z,38.80
2017-11-29T16:38:50.013Z,40.13
2017-11-29T16:41:17.522Z,35.63
2017-11-29T16:43:45.034Z,37.27
2017-11-29T16:46:12.558Z,36.00
2017-11-29T16:48:40.068Z,36.10
2017-11-29T16:51:07.564Z,36.50
2017-11-29T16:53:35.054Z,36.57
2017-11-29T16:56:02.621Z,36.90
2017-11-29T16:58:30.187Z,33.63
2017-11-29T17:00:57.743Z,35.10
2017-11-29T17:03:25.249Z,37.07
2017-11-29T17:05:52.753Z,35.67
2017-11-29T17:08:20.258Z,36.33
2017-11-29T17:10:47.785Z,36.47
2017-11-29T17:13:15.325Z,38.00
2017-11-29T17:15:43.149Z,40.30
2017-11-29T17:18:10.629Z,38.37
2017-11-29T17:20:38.190Z,37.73
2017-11-29T17:23:05.680Z,42.60
2017-11-29T17:25:33.172Z,40.40
2017-11-29T17:28:00.684Z,39.43
2017-11-29T17:30:29.531Z,40.40
2017-11-29T17:32:57.014Z,37.97
2017-11-29T17:35:24.510Z,37.57
2017-11-29T17:37:52.004Z,39.57
2017-11-29T17:40:19.680Z,37.67
2017-11-29T17:42:47.391Z,39.67
2017-11-29T17:45:15.367Z,37.00
2017-11-29T17:47:42.858Z,40.40
2017-11-29T17:50:10.408Z,36.40
2017-11-29T17:52:38.074Z,38.20
2017-11-29T17:55:05.563Z,37.20
2017-11-29T17:57:33.185Z,38.10
2017-11-29T18:00:00.656Z,38.03
2017-11-29T18:02:28.103Z,34.13
2017-11-29T18:04:55.602Z,34.13
2017-11-29T18:07:23.076Z,34.60
2017-11-29T18:09:50.549Z,37.00
2017-11-29T18:12:18.018Z,33.20
2017-11-29T18:14:45.732Z,33.07
2017-11-29T18:17:13.268Z,33.63
2017-11-29T18:19:40.730Z,34.07
2017-11-29T18:22:08.223Z,34.50
2017-11-29T18:24:35.763Z,32.70
2017-11-29T18:27:03.278Z,33.83
2017-11-29T18:29:30.800Z,33.20
2017-11-29T18:31:58.268Z,33.23
2017-11-29T18:34:25.734Z,32.20
2017-11-29T18:36:53.230Z,33.33
2017-11-29T18:39:21.814Z,34.33
2017-11-29T18:41:49.346Z,31.70
2017-11-29T18:44:18.778Z,32.80
2017-11-29T18:46:46.471Z,33.00
2017-11-29T18:49:14.011Z,32.73
2017-11-29T18:51:41.789Z,34.30
2017-11-29T18:54:09.373Z,31.13
2017-11-29T18:56:39.034Z,34.07
2017-11-29T18:59:06.646Z,33.00
2017-11-29T19:01:34.182Z,32.40
2017-11-29T19:04:01.761Z,32.00
2017-11-29T19:06:29.385Z,31.73
2017-11-29T19:08:56.903Z,32.30
2017-11-29T19:11:24.478Z,33.03
2017-11-29T19:13:51.953Z,32.97
2017-11-29T19:16:19.438Z,30.50
2017-11-29T19:18:47.018Z,31.40
2017-11-29T19:21:14.650Z,33.60
2017-11-29T19:23:42.154Z,29.70
2017-11-29T19:26:09.798Z,30.43
2017-11-29T19:28:39.145Z,29.20
2017-11-29T19:31:06.810Z,28.83
2017-11-29T19:33:34.365Z,26.83
2017-11-29T19:36:01.913Z,23.63
2017-11-29T19:38:29.408Z,16.73
2017-11-29T19:40:56.883Z,13.07
2017-11-29T19:43:24.389Z,12.23
2017-11-29T19:45:51.865Z,11.27
2017-11-29T19:48:19.583Z,11.63
2017-11-29T19:50:47.051Z,10.73
2017-11-29T19:53:14.559Z,11.30
2017-11-29T19:55:42.048Z,10.70
2017-11-29T19:58:09.511Z,11.20
2017-11-29T20:00:37.109Z,12.83
2017-11-29T20:03:04.868Z,11.80
2017-11-29T20:05:32.366Z,11.67
2017-11-29T20:07:59.866Z,11.30
2017-11-29T20:10:27.351Z,11.30
2017-11-29T20:12:54.822Z,11.97
2017-11-29T20:15:22.591Z,11.23
2017-11-29T20:17:50.121Z,12.53
2017-11-29T20:20:19.626Z,11.60
2017-11-29T20:22:47.144Z,9.83
2017-11-29T20:25:14.601Z,10.50
2017-11-29T20:27:42.122Z,10.10
2017-11-29T20:30:09.579Z,11.07
2017-11-29T20:32:37.073Z,10.60
2017-11-29T20:35:04.663Z,10.50
2017-11-29T20:37:32.632Z,8.63
2017-11-29T20:40:00.133Z,9.30
2017-11-29T20:42:27.869Z,8.63
2017-11-29T20:44:55.413Z,8.87
2017-11-29T20:47:23.845Z,9.50
2017-11-29T20:49:51.346Z,10.37
2017-11-29T20:52:25.266Z,10.83
2017-11-29T20:54:52.897Z,11.40
2017-11-29T20:57:23.376Z,12.10
2017-11-29T20:59:50.902Z,13.40
2017-11-29T21:02:18.495Z,14.00
2017-11-29T21:04:46.022Z,15.00
2017-11-29T21:07:13.518Z,16.40
2017-11-29T21:09:40.993Z,16.60
2017-11-29T21:12:08.548Z,16.87
2017-11-29T21:14:36.158Z,17.43
2017-11-29T21:17:03.698Z,20.03
2017-11-29T21:19:31.271Z,19.83
2017-11-29T21:21:58.756Z,20.10
2017-11-29T21:24:26.413Z,20.97
2017-11-29T21:26:54.232Z,20.00
2017-11-29T21:29:21.733Z,20.57
2017-11-29T21:31:49.205Z,20.90
2017-11-29T21:34:17.747Z,21.47
2017-11-29T21:36:51.256Z,22.40
2017-11-29T21:39:23.582Z,22.63
2017-11-29T21:41:51.055Z,22.70
2017-11-29T21:44:18.525Z,23.00
2017-11-29T21:46:46.935Z,24.47
2017-11-29T21:49:14.427Z,24.40
2017-11-29T21:51:41.898Z,24.77
2017-11-29T21:54:09.372Z,24.40
2017-11-29T21:56:36.855Z,25.53
2017-11-29T21:59:04.423Z,25.87
2017-11-29T22:01:33.363Z,25.53
2017-11-29T22:04:01.137Z,25.43
2017-11-29T22:06:29.719Z,23.90
2017-11-29T22:08:57.607Z,22.13
2017-11-29T22:11:25.150Z,25.77
2017-11-29T22:13:54.009Z,24.13
2017-11-29T22:16:22.284Z,25.50
2017-11-29T22:18:51.300Z,25.20
2017-11-29T22:21:18.805Z,25.20
2017-11-29T22:23:46.294Z,26.47
2017-11-29T22:26:13.785Z,25.70
2017-11-29T22:28:41.418Z,25.43
2017-11-29T22:31:08.874Z,24.90
2017-11-29T22:33:36.352Z,25.80
2017-11-29T22:36:03.821Z,24.90
2017-11-29T22:38:31.774Z,24.53
2017-11-29T22:40:59.299Z,24.80
2017-11-29T22:43:26.761Z,23.83
2017-11-29T22:45:54.253Z,24.80
2017-11-29T22:48:21.758Z,24.70
2017-11-29T22:50:49.223Z,23.40
2017-11-29T22:53:16.701Z,23.23
2017-11-29T22:55:44.177Z,24.50
2017-11-29T22:58:11.628Z,21.33
2017-11-29T23:00:39.350Z,20.40
2017-11-29T23:03:06.847Z,21.90
2017-11-29T23:05:34.367Z,21.53
2017-11-29T23:08:01.981Z,21.35
2017-11-29T23:10:30.084Z,18.93
2017-11-29T23:12:57.563Z,20.30
2017-11-29T23:15:25.055Z,19.60
2017-11-29T23:17:52.520Z,20.43
2017-11-29T23:20:20.049Z,19.90
2017-11-29T23:22:48.516Z,19.57
2017-11-29T23:25:16.017Z,18.00
2017-11-29T23:27:43.486Z,17.47
2017-11-29T23:30:10.967Z,17.50
2017-11-29T23:32:38.465Z,19.20
2017-11-29T23:35:05.920Z,19.43
2017-11-29T23:37:33.379Z,19.53
2017-11-29T23:40:00.859Z,19.57
2017-11-29T23:42:29.355Z,18.40
2017-11-29T23:44:56.841Z,20.27
2017-11-29T23:47:24.320Z,19.53
2017-11-29T23:49:51.790Z,20.07
2017-11-29T23:52:19.272Z,20.60
2017-11-29T23:54:48.060Z,21.00
2017-11-29T23:57:15.640Z,21.17
2017-11-29T23:59:43.135Z,21.37
